Timeline UpdatesTrip UpdatesNews PostsPvt PostsTravel TipsAdmin PostsConv PostsFollowed PostsChat RequestsBlog PostsPNR Posts

Disclaimer
Search
 
 
Thu Jul 24, 2014 23:15:00 ISTHomeTrainsΣChainsAtlasPNRForumGalleryNewsFAQTripsMembersLoginFeedback
No Recent News for this Train
Other Trains in the News **new
Latest...
.
Thu Apr 24, 2014 (08:49PM)
⇐ Return Journey: Train# 13006

13005/Howrah - Amritsar (Punjab) Mail

Oct 13 2013 (9:26PM)
Change Departure Station:
Change Arrival Station:
Post a Train Travel TipPost a Train Travel Tip **new
Post a Comment/Question/Picture/VideoPost a Comment/Question/Picture/Video
Pantry/Catering
✓ Pantry Car Avbl
✓ Catering Avbl
Tea: Rs 7; Samosa: Rs 15/pair.
RSA - Rake Sharing
No RSA.
Rake/Coach Composition
LOCO-SLR-GS-GS-S1-S2-S3-S4-S5-S6-S7-S8-S9-S10-PC-B1-B2-B3-A1-HA1-GS-MILITARY-SLR(Ladies)
Loco
HWH/MGS WAP-4 (HWH-MGS) SGUJ WDP-4B (MGS-LKO) GZB WAP-4/5 (LKO-ASR)
News    PNR    Forum    Time-Table    Availability    Fare Chart    Map    Arr/Dep History    Trips    Gallery    ΣChains    X/O    Timeline    
Travel Time: 3h 7m    4 halts    Distance: 225 km    Avg Speed: 72 km/hr
Type: Mail/Express
Zone: ER/Eastern
Departs @ 19:10 (Avg 32m late)
Platform# 8
SMTWTFS
Kolkata Howrah Junction/HWH 
Arrives @ 22:17 (Avg 1h 3m late)
Platform# 3
SMTWTFS
Chittaranjan/CRJ 

4 halts. 58 intermediate Stations between Kolkata Howrah Junction and Chittaranjan

Show ALL intermediate Stations  Show Old Time-Table

#CodeStation NameX/OArrivesAvgDepartsAvgHaltPFDay#KmSpeedElevZoneAddress
1HWH»Kolkata Howrah Junction (23)»  -19:10+32810.08610mERHowrah 711101, West Bengal
2BWNBarddhaman Junction (8)X  20:16+4920:21+485m2194.47634mERDist - Barddhaman, West Bengal
3DGRDurgapur (5)XO  21:11+4821:14+473m31157.99171mERDurgapur, West Bengal
4RNGRaniGanj (4)  21:30+5421:31+551m--1182.26092mERRaniganj, West Bengal
5ASNAsansol Junction (7)  21:49+5521:54+565m31200.465113mERDist - bardhaman, West Bengal
6CRJ•Chittaranjan (3)•X  22:17+1:0322:19+1:032m31225.487182mERMihijam, Jharkhand
7MDPMadhupur Junction (4)X  22:58+1:1223:02+1:124m11281.873254mER06432-224478, Jharkhand
8JSMEJasidih Junction (5)X  23:26+1:1823:30+1:184m--1310.935271mERJasidih, Jharkhand
9JAJJhajha (4)X  00:45+4600:50+485m--2355.086143mECRJhajha, Bihar
10KIULKiul Junction (5)  01:27+1:0401:32+1:035m--2408.35753mECRDist. Lakhisarai, Bihar
11MKAMokama Junction (3)  02:08+1:1902:12+1:174m--2442.57448mECRPatna, Bihar
12BKPBakhtiyarpur Junction (5)  02:48+1:1902:50+1:222m--2486.76651mECRPatna, Bihar
13PNCPatna Saheb (3)  03:22+1:3103:24+1:332m--2521.91359mECRPatna, Bihar
14PNBEPatna Junction (10)X  04:10+1:0704:20+1:1010m62531.83857mECRPatna 800001, Bihar
15DNRDanapur (5)X  04:35+1:1204:37+1:122m--2541.28258mECRKhagaul, Bihar
16ARAAra Junction (3)  05:06+1:2405:11+1:235m12580.710163mECRarrah( 06182-233411), Bihar
17DUREDumraon (3)X  05:42+1:3305:43+1:341m22632.96170mECRDumraon, Bihar
18BXRBuxar (3)X  05:59+1:3406:03+1:344m22649.26767mECRBuxar, Bihar
19GMRGahmar (2)  06:21+1:3606:22+1:371m--2669.46968mECRDistt: Ghazipur, Uttar Pradesh
20DLNDildarnagar Junction (2)X  06:36+1:3706:38+1:382m22685.48172mECRDildarnagar, Uttar Pradesh
21ZNAZamania (2)X  06:48+1:4106:49+1:421m12698.93477mECRGhazipur, Uttar Pradesh
22MGSMughal Sarai Junction (8)X  08:07+1:1008:27+1:1320m22743.12483mECRMughalsarai 232101, Uttar Pradesh
23KEIKashi (3)X  08:55+1:1908:56+1:221m12754.12085mNRVaranasi, Uttar Pradesh
24BSBVaranasi Junction (9)  09:12+1:2209:27+1:2315m82759.47282mNRVaranasi 221002, Uttar Pradesh
25BOYBhadohi (2)  10:04+1:3710:05+1:381m--2803.96590mNRUttar Pradesh 221401, Uttar Pradesh
26JNHJanghai Junction (3)  10:33+1:3410:34+1:351m--2834.45992mNRUttar Pradesh 212401, Uttar Pradesh
27BSEBadshahpur (2)  10:51+1:3510:52+1:371m--2851.26693mNRMungra Badshahpur, Uttar Pradesh
28PBHPratapgarh Junction (3)X  11:25+1:4511:30+1:475m22887.57297mNRPratapgarh, Uttar Pradesh
29AMEAmethi (2)  11:59+1:5412:00+1:461m--2922.553107mNRAmethi., Uttar Pradesh
30GNGGauriGanj (2)  12:15+1:4712:16+1:491m--2935.860110mNRSH 34, Uttar Pradesh
31JAISJais (2)X  12:34+1:5212:36+1:442m--2953.951108mNRRae Bareli, Uttar Pradesh
32RBLRae Bareli Junction (4)X  13:10+1:5113:15+1:445m--2982.661116mNRRaebareli, Uttar Pradesh
33BCNBachhrawan (2)X  13:45+1:5413:47+1:462m--21013.330124mNRLucknow, Uttar Pradesh
34LKOLucknow Charbagh (9)X  15:20+1:2915:45+1:1825m321060.563123mNR226004, Uttar Pradesh
35BLMBalamu Junction (4)  16:51+1:1616:53+1:162m--21129.373139mNRBalamau, Uttar Pradesh
36HRIHardoi (5)  17:20+1:0717:23+1:083m121162.463146mNRHardoi, Uttar Pradesh
37ROZARoza Junction (4)X  18:16+5818:18+1:032m--21217.937156mNRShahjahanpur, Uttar Pradesh
38SPNShahjahanpur Junction (3)X  18:30+1:0218:35+1:025m--21225.374156mNRShahjahanpur, Uttar Pradesh
39BEBareilly Junction (4)X  19:32+1:0919:37+1:115m221295.895174mNRBareilly, Uttar Pradesh
40RMURampur Junction (3)X  20:17+1:2920:18+1:331m--21358.829190mNRRampur, Uttar Pradesh
41MBMoradabad Junction (7)X  21:15+1:1521:25+1:1610m221386.165201mNRMoradabad, Uttar Pradesh
42DPRDhampur  22:20+1:2722:22+1:272m--21445.856236mNRDhampur, Uttar Pradesh
43NGGNagina (3)O  22:40+1:2722:42+1:272m--21462.536247mNRNagina, Uttar Pradesh
44NBDNajibabad Junction (3)X  23:20+1:1023:25+1:115m221485.068269mNRNajibabad, Uttar Pradesh
45LRJLaksar Junction (4)  00:02+1:1000:07+1:085m231526.976238mNRLaksar, Uttarakhand
46RKRoorkee (3)X  00:21+1:1300:26+1:125m331544.743264mNRRoorkee - 247667, Uttarakhand
47SRESaharanpur Junction (6)XO  01:15+1:1501:25+1:1910m--31579.462276mNRSaharanpur, Uttar Pradesh
48JUDYamunanagar-Jagadhri (3)X  01:54+1:2401:55+1:251m331609.551275mNRYamunanagar, Haryana
49UMBAmbala Cantt. Junction (7)XO  02:55+1:1403:15+1:0820m231660.656278mNRAmbala 133001, Haryana
50RPJRajpura Junction (3)X  03:45+1:1103:47+1:122m131688.648272mNRNH-1, Punjab
51LDHLudhiana Junction (7)X  05:35+1:0705:45+1:3210m331774.233246mNRLudhiana 141001, Punjab
52PHRPhillaur Junction (3)X  06:09+1:2506:11+1:252m231787.375246mNRPhillaur, Punjab
53PGWPhagwara Junction (3)X  06:29+1:2606:31+1:262m231809.870245mNRPhagwara, Punjab
54JRCJalandhar Cantt. Junction (3)X  06:45+1:2606:47+1:262m131826.197239mNRNear Rama Mandi, Punjab
55JUCJalandhar City Junction (5)X  06:50+1:3207:00+1:3010m131831.049239mNRJalandhar 144001, Punjab
56BEASBeas Junction (2)X  07:44+1:1907:46+1:192m131867.137238mNRBeas, Punjab
57ASRAmritsar Junction (5)  08:55+57-331910.1-233mNRAmritsar 143002, Punjab
Scroll to Top
Scroll to Bottom